createdAt,value
2019-06-07T00:00:02.916Z,77.65
2019-06-07T00:01:02.148Z,76.97
2019-06-07T00:02:02.183Z,77.75
2019-06-07T00:03:02.310Z,78.27
2019-06-07T00:04:02.169Z,77.96
2019-06-07T00:05:02.182Z,77.34
2019-06-07T00:06:02.308Z,77.77
2019-06-07T00:07:02.125Z,77.85
2019-06-07T00:08:07.843Z,77.67
2019-06-07T00:09:02.684Z,77.62
2019-06-07T00:10:02.218Z,77.54
2019-06-07T00:11:02.236Z,77.50
2019-06-07T00:12:02.265Z,76.68
2019-06-07T00:13:02.269Z,76.51
2019-06-07T00:14:02.474Z,77.02
2019-06-07T00:15:02.270Z,77.19
2019-06-07T00:16:02.313Z,78.19
2019-06-07T00:17:02.335Z,78.11
2019-06-07T00:18:02.332Z,78.32
2019-06-07T00:19:02.287Z,78.46
2019-06-07T00:20:02.905Z,77.81
2019-06-07T00:21:02.202Z,78.34
2019-06-07T00:22:22.564Z,77.59
2019-06-07T00:23:02.231Z,77.43
2019-06-07T00:24:02.239Z,77.74
2019-06-07T00:25:02.447Z,77.87
2019-06-07T00:26:02.155Z,78.40
2019-06-07T00:27:02.280Z,78.41
2019-06-07T00:28:02.301Z,77.47
2019-06-07T00:29:02.301Z,77.78
2019-06-07T00:30:29.709Z,78.58
2019-06-07T00:31:02.311Z,78.14
2019-06-07T00:32:02.266Z,76.72
2019-06-07T00:33:02.287Z,77.83
2019-06-07T00:34:02.326Z,77.94
2019-06-07T00:35:02.464Z,78.12
2019-06-07T00:36:02.430Z,77.81
2019-06-07T00:37:02.378Z,77.82
2019-06-07T00:38:02.351Z,77.93
2019-06-07T00:39:02.394Z,77.74
2019-06-07T00:40:14.122Z,78.14
2019-06-07T00:41:02.415Z,78.08
2019-06-07T00:42:02.398Z,78.08
2019-06-07T00:43:02.517Z,78.52
2019-06-07T00:44:02.412Z,78.75
2019-06-07T00:45:02.315Z,78.30
2019-06-07T00:46:02.407Z,78.58
2019-06-07T00:47:02.538Z,77.95
2019-06-07T00:48:02.221Z,78.15
2019-06-07T00:49:02.324Z,78.00
2019-06-07T00:50:02.451Z,78.48
2019-06-07T00:51:02.303Z,78.57
2019-06-07T00:52:02.425Z,78.29
2019-06-07T00:53:19.743Z,78.78
2019-06-07T00:54:02.387Z,78.48
2019-06-07T00:55:02.156Z,78.67
2019-06-07T00:56:02.243Z,78.78
2019-06-07T00:57:02.347Z,78.65
2019-06-07T00:58:02.646Z,78.15
2019-06-07T00:59:11.299Z,78.28
2019-06-07T01:00:02.302Z,78.29
2019-06-07T01:01:02.312Z,78.49
2019-06-07T01:02:02.365Z,78.39
2019-06-07T01:03:02.343Z,78.07
2019-06-07T01:04:02.332Z,78.41
2019-06-07T01:05:02.348Z,77.66
2019-06-07T01:06:02.346Z,77.27
2019-06-07T01:07:02.483Z,78.14
2019-06-07T01:08:02.449Z,79.31
2019-06-07T01:09:02.706Z,78.57
2019-06-07T01:10:02.367Z,79.53
2019-06-07T01:11:02.268Z,79.62
2019-06-07T01:12:02.389Z,79.38
2019-06-07T01:13:02.301Z,78.53
2019-06-07T01:14:02.317Z,79.28
2019-06-07T01:15:02.340Z,79.34
2019-06-07T01:16:02.407Z,78.87
2019-06-07T01:17:22.510Z,78.94
2019-06-07T01:19:02.461Z,79.66
2019-06-07T01:20:02.329Z,79.58
2019-06-07T01:21:02.345Z,78.90
2019-06-07T01:22:02.379Z,78.30
2019-06-07T01:23:02.405Z,78.38
2019-06-07T01:24:11.550Z,78.24
2019-06-07T01:25:02.391Z,78.86
2019-06-07T01:26:02.396Z,79.42
2019-06-07T01:27:02.361Z,79.72
2019-06-07T01:28:02.320Z,79.60
2019-06-07T01:29:02.434Z,79.84
2019-06-07T01:30:02.454Z,80.22
2019-06-07T01:31:02.304Z,80.07
2019-06-07T01:32:02.413Z,79.83
2019-06-07T01:33:02.658Z,79.13
2019-06-07T01:34:02.362Z,79.24
2019-06-07T01:35:02.346Z,78.26
2019-06-07T01:36:02.394Z,78.43
2019-06-07T01:37:02.424Z,78.64
2019-06-07T01:38:02.376Z,79.42
2019-06-07T01:39:02.395Z,79.39
2019-06-07T01:40:02.469Z,79.57
2019-06-07T01:41:02.524Z,79.48
2019-06-07T01:42:02.418Z,79.46
2019-06-07T01:43:02.435Z,79.30
2019-06-07T01:44:02.365Z,78.71
2019-06-07T01:45:02.369Z,78.99
2019-06-07T01:46:02.380Z,79.32
2019-06-07T01:47:02.395Z,79.46
2019-06-07T01:48:02.343Z,78.91
2019-06-07T01:49:02.362Z,79.28
2019-06-07T01:50:02.410Z,79.33
2019-06-07T01:51:02.590Z,79.44
2019-06-07T01:52:02.523Z,79.59
2019-06-07T01:53:02.403Z,80.20
2019-06-07T01:54:48.672Z,79.63
2019-06-07T01:55:02.437Z,79.42
2019-06-07T01:56:02.427Z,79.73
2019-06-07T01:57:02.507Z,79.58
2019-06-07T01:58:02.345Z,80.10
2019-06-07T01:59:02.361Z,80.30
2019-06-07T02:00:02.381Z,80.59
2019-06-07T02:01:02.385Z,80.82
2019-06-07T02:02:02.418Z,80.76
2019-06-07T02:03:02.444Z,81.08
2019-06-07T02:04:02.969Z,80.84
2019-06-07T02:05:02.496Z,80.03
2019-06-07T02:06:02.403Z,80.58
2019-06-07T02:07:02.452Z,80.48
2019-06-07T02:08:02.433Z,79.85
2019-06-07T02:09:02.586Z,80.07
2019-06-07T02:10:02.532Z,80.47
2019-06-07T02:11:02.454Z,80.48
2019-06-07T02:12:02.517Z,80.31
2019-06-07T02:13:02.444Z,80.70
2019-06-07T02:14:02.634Z,80.68
2019-06-07T02:15:03.209Z,80.92
2019-06-07T02:16:02.396Z,81.14
2019-06-07T02:17:02.470Z,80.68
2019-06-07T02:18:02.424Z,80.79
2019-06-07T02:19:03.912Z,80.59
2019-06-07T02:20:02.431Z,80.43
2019-06-07T02:21:02.506Z,80.50
2019-06-07T02:22:02.654Z,80.49
2019-06-07T02:23:02.417Z,79.84
2019-06-07T02:24:02.461Z,79.72
2019-06-07T02:25:35.079Z,80.45
2019-06-07T02:26:02.388Z,80.46
2019-06-07T02:27:02.501Z,80.36
2019-06-07T02:28:26.636Z,80.04
2019-06-07T02:29:02.403Z,79.99
2019-06-07T02:30:35.203Z,80.09
2019-06-07T02:31:02.344Z,80.92
2019-06-07T02:32:02.415Z,81.08
2019-06-07T02:33:02.408Z,80.88
2019-06-07T02:34:02.441Z,81.01
2019-06-07T02:35:02.440Z,80.83
2019-06-07T02:36:02.561Z,80.87
2019-06-07T02:37:02.503Z,80.49
2019-06-07T02:38:02.415Z,81.06
2019-06-07T02:39:02.418Z,81.04
2019-06-07T02:40:02.483Z,80.45
2019-06-07T02:41:02.499Z,80.06
2019-06-07T02:42:02.498Z,79.77
2019-06-07T02:43:02.430Z,79.72
2019-06-07T02:44:02.495Z,80.29
2019-06-07T02:45:02.630Z,80.44
2019-06-07T02:46:24.437Z,80.51
2019-06-07T02:47:02.517Z,80.22
2019-06-07T02:48:02.427Z,79.42
2019-06-07T02:49:02.424Z,79.98
2019-06-07T02:50:02.428Z,79.51
2019-06-07T02:51:02.427Z,79.51
2019-06-07T02:52:02.586Z,79.67
2019-06-07T02:53:02.467Z,79.31
2019-06-07T02:54:02.491Z,78.99
2019-06-07T02:55:02.481Z,79.57
2019-06-07T02:57:02.909Z,79.10
2019-06-07T02:58:02.495Z,79.48
2019-06-07T02:59:02.512Z,79.95
2019-06-07T03:00:17.067Z,80.68
2019-06-07T03:01:09.337Z,80.94
2019-06-07T03:02:02.709Z,80.71
2019-06-07T03:03:02.526Z,81.09
2019-06-07T03:04:02.449Z,81.16
2019-06-07T03:05:02.454Z,81.56
2019-06-07T03:06:02.570Z,81.45
2019-06-07T03:07:02.485Z,81.36
2019-06-07T03:08:02.661Z,81.66
2019-06-07T03:09:02.493Z,81.27
2019-06-07T03:10:02.522Z,80.53
2019-06-07T03:11:02.518Z,80.54
2019-06-07T03:12:02.531Z,81.10
2019-06-07T03:13:02.517Z,81.61
2019-06-07T03:14:02.539Z,81.60
2019-06-07T03:15:02.561Z,81.40
2019-06-07T03:16:02.533Z,80.69
2019-06-07T03:17:02.470Z,80.50
2019-06-07T03:18:02.469Z,81.49
2019-06-07T03:19:02.658Z,80.97
2019-06-07T03:20:02.389Z,80.84
2019-06-07T03:21:05.513Z,81.51
2019-06-07T03:22:02.491Z,81.00
2019-06-07T03:23:02.489Z,80.96
2019-06-07T03:24:02.490Z,80.80
2019-06-07T03:25:02.600Z,81.25
2019-06-07T03:26:02.540Z,80.47
2019-06-07T03:27:34.849Z,81.30
2019-06-07T03:28:02.504Z,80.67
2019-06-07T03:29:02.635Z,80.52
2019-06-07T03:30:35.174Z,80.17
2019-06-07T03:31:03.141Z,80.50
2019-06-07T03:32:02.469Z,80.24
2019-06-07T03:33:06.276Z,80.41
2019-06-07T03:34:02.474Z,80.64
2019-06-07T03:35:02.495Z,81.11
2019-06-07T03:36:22.959Z,81.30
2019-06-07T03:37:02.756Z,81.16
2019-06-07T03:38:02.820Z,81.40
2019-06-07T03:39:02.746Z,81.62
2019-06-07T03:40:02.521Z,81.34
2019-06-07T03:41:02.521Z,81.32
2019-06-07T03:42:05.609Z,81.02
2019-06-07T03:43:02.623Z,81.42
2019-06-07T03:44:02.548Z,81.00
2019-06-07T03:45:02.573Z,81.32
2019-06-07T03:46:02.541Z,81.43
2019-06-07T03:47:02.616Z,80.28
2019-06-07T03:48:02.684Z,80.17
2019-06-07T03:49:02.575Z,79.95
2019-06-07T03:50:02.566Z,80.22
2019-06-07T03:51:04.986Z,79.96
2019-06-07T03:52:02.513Z,80.32
2019-06-07T03:53:02.518Z,79.98
2019-06-07T03:54:02.502Z,80.20
2019-06-07T03:55:02.539Z,79.98
2019-06-07T03:56:02.960Z,79.49
2019-06-07T03:57:02.650Z,79.05
2019-06-07T03:58:31.317Z,79.98
2019-06-07T03:59:02.544Z,80.04
2019-06-07T04:00:02.683Z,80.59
2019-06-07T04:01:02.478Z,80.03
2019-06-07T04:02:02.701Z,80.07
2019-06-07T04:03:02.450Z,79.89
2019-06-07T04:04:02.485Z,80.51
2019-06-07T04:05:02.519Z,80.16
2019-06-07T04:06:02.500Z,80.17
2019-06-07T04:07:02.509Z,79.81
2019-06-07T04:08:02.530Z,79.43
2019-06-07T04:09:02.516Z,79.45
2019-06-07T04:10:02.560Z,79.56
2019-06-07T04:11:02.723Z,79.45
2019-06-07T04:12:02.582Z,79.44
2019-06-07T04:13:02.571Z,80.15
2019-06-07T04:14:02.790Z,80.63
2019-06-07T04:15:02.553Z,79.40
2019-06-07T04:16:02.660Z,79.88
2019-06-07T04:17:02.606Z,79.09
2019-06-07T04:18:04.079Z,79.16
2019-06-07T04:19:02.488Z,78.84
2019-06-07T04:20:03.041Z,79.38
2019-06-07T04:21:02.515Z,78.87
2019-06-07T04:22:02.649Z,78.53
2019-06-07T04:23:02.477Z,77.64
2019-06-07T04:24:02.528Z,77.80
2019-06-07T04:25:02.572Z,78.34
2019-06-07T04:26:02.652Z,78.32
2019-06-07T04:27:02.534Z,78.25
2019-06-07T04:28:02.889Z,78.18
2019-06-07T04:29:32.544Z,78.10
2019-06-07T04:30:07.337Z,78.10
2019-06-07T04:31:02.616Z,78.20
2019-06-07T04:32:04.311Z,78.19
2019-06-07T04:33:02.702Z,78.00
2019-06-07T04:34:02.724Z,77.52
2019-06-07T04:35:02.531Z,77.42
2019-06-07T04:36:02.560Z,77.69
2019-06-07T04:37:02.563Z,77.37
2019-06-07T04:38:02.534Z,77.80
2019-06-07T04:39:02.567Z,77.71
2019-06-07T04:40:02.608Z,78.00
2019-06-07T04:41:02.688Z,78.32
2019-06-07T04:42:02.608Z,77.37
2019-06-07T04:43:02.614Z,77.14
2019-06-07T04:44:02.720Z,77.42
2019-06-07T04:45:02.732Z,76.72
2019-06-07T04:46:02.561Z,76.40
2019-06-07T04:47:02.541Z,75.66
2019-06-07T04:48:02.778Z,76.22
2019-06-07T04:49:02.526Z,76.11
2019-06-07T04:50:02.538Z,76.99
2019-06-07T04:51:02.577Z,76.91
2019-06-07T04:52:02.600Z,77.72
2019-06-07T04:53:02.582Z,78.64
2019-06-07T04:54:02.573Z,78.94
2019-06-07T04:55:02.784Z,79.18
2019-06-07T04:56:02.598Z,77.78
2019-06-07T04:57:02.625Z,77.55
2019-06-07T04:58:02.643Z,78.25
2019-06-07T04:59:02.600Z,78.49
2019-06-07T05:00:33.330Z,78.22
2019-06-07T05:01:03.701Z,78.16
2019-06-07T05:02:02.575Z,77.66
2019-06-07T05:03:02.688Z,77.37
2019-06-07T05:04:02.612Z,77.24
2019-06-07T05:05:02.675Z,76.34
2019-06-07T05:06:02.836Z,77.77
2019-06-07T05:07:02.597Z,77.83
2019-06-07T05:08:07.376Z,78.22
2019-06-07T05:09:02.621Z,77.69
2019-06-07T05:10:02.658Z,77.03
2019-06-07T05:11:02.612Z,77.06
2019-06-07T05:12:02.649Z,78.02
2019-06-07T05:13:02.625Z,78.84
2019-06-07T05:14:02.709Z,78.11
2019-06-07T05:15:02.748Z,76.69
2019-06-07T05:16:02.623Z,77.55
2019-06-07T05:17:02.786Z,77.64
2019-06-07T05:18:05.563Z,77.60
2019-06-07T05:19:02.548Z,77.38
2019-06-07T05:20:02.682Z,76.54
2019-06-07T05:21:02.586Z,76.76
2019-06-07T05:22:04.752Z,76.28
2019-06-07T05:23:02.616Z,75.68
2019-06-07T05:24:07.480Z,75.45
2019-06-07T05:25:02.736Z,75.68
2019-06-07T05:26:02.625Z,76.51
2019-06-07T05:27:02.697Z,76.69
2019-06-07T05:28:02.780Z,76.56
2019-06-07T05:29:02.659Z,76.20
2019-06-07T05:30:24.304Z,76.84
2019-06-07T05:31:05.005Z,75.90
2019-06-07T05:32:02.779Z,76.52
2019-06-07T05:33:02.698Z,77.05
2019-06-07T05:34:02.676Z,76.97
2019-06-07T05:35:03.340Z,77.15
2019-06-07T05:36:02.580Z,77.21
2019-06-07T05:37:11.509Z,76.42
2019-06-07T05:38:02.617Z,76.58
2019-06-07T05:39:02.831Z,75.78
2019-06-07T05:40:02.613Z,76.85
2019-06-07T05:41:02.639Z,76.85
2019-06-07T05:42:02.668Z,75.54
2019-06-07T05:43:02.634Z,76.37
2019-06-07T05:44:12.491Z,76.48
2019-06-07T05:45:02.526Z,75.13
2019-06-07T05:46:02.789Z,74.14
2019-06-07T05:47:04.895Z,73.54
2019-06-07T05:48:02.835Z,72.83
2019-06-07T05:49:02.775Z,72.52
2019-06-07T05:50:03.458Z,72.26
2019-06-07T05:51:02.607Z,72.08
2019-06-07T05:52:02.617Z,74.02
2019-06-07T05:53:02.602Z,74.56
2019-06-07T05:54:02.655Z,75.00
2019-06-07T05:55:02.760Z,74.31
2019-06-07T05:56:02.688Z,73.60
2019-06-07T05:57:02.670Z,72.85
2019-06-07T05:58:02.737Z,71.79
2019-06-07T05:59:02.650Z,73.01
2019-06-07T06:00:02.753Z,72.72
2019-06-07T06:01:41.637Z,72.75
2019-06-07T06:02:14.036Z,72.13
2019-06-07T06:03:05.869Z,72.54
2019-06-07T06:04:02.725Z,73.60
2019-06-07T06:05:02.851Z,73.36
2019-06-07T06:06:02.693Z,72.72
2019-06-07T06:07:02.647Z,72.68
2019-06-07T06:08:02.659Z,72.18
2019-06-07T06:09:13.358Z,71.79
2019-06-07T06:10:03.035Z,71.77
2019-06-07T06:11:02.635Z,71.86
2019-06-07T06:12:02.798Z,72.56
2019-06-07T06:13:02.618Z,70.99
2019-06-07T06:14:07.371Z,70.94
2019-06-07T06:15:02.690Z,70.96
2019-06-07T06:16:02.692Z,71.76
2019-06-07T06:17:02.860Z,71.65
2019-06-07T06:18:02.693Z,70.91
2019-06-07T06:19:02.721Z,71.93
2019-06-07T06:20:02.884Z,72.23
2019-06-07T06:21:16.178Z,72.51
2019-06-07T06:22:02.712Z,75.24
2019-06-07T06:23:02.831Z,73.95
2019-06-07T06:24:02.624Z,73.16
2019-06-07T06:25:30.606Z,72.18
2019-06-07T06:26:02.657Z,72.10
2019-06-07T06:27:28.261Z,73.16
2019-06-07T06:28:11.006Z,72.04
2019-06-07T06:29:02.669Z,71.63
2019-06-07T06:30:02.666Z,70.67
2019-06-07T06:31:02.965Z,71.74
2019-06-07T06:32:40.555Z,72.95
2019-06-07T06:33:02.666Z,72.53
2019-06-07T06:34:02.829Z,73.00
2019-06-07T06:35:02.740Z,72.85
2019-06-07T06:36:02.759Z,73.04
2019-06-07T06:37:02.603Z,73.40
2019-06-07T06:38:02.705Z,72.75
2019-06-07T06:39:02.717Z,71.48
2019-06-07T06:40:02.773Z,70.90
2019-06-07T06:41:15.142Z,70.53
2019-06-07T06:42:03.940Z,70.17
2019-06-07T06:43:02.703Z,71.77
2019-06-07T06:44:02.920Z,73.82
2019-06-07T06:45:02.798Z,73.65
2019-06-07T06:46:02.802Z,72.63
2019-06-07T06:47:02.725Z,71.59
2019-06-07T06:48:02.980Z,70.57
2019-06-07T06:49:05.970Z,71.73
2019-06-07T06:50:02.858Z,70.15
2019-06-07T06:51:02.964Z,72.76
2019-06-07T06:52:03.613Z,75.25
2019-06-07T06:53:02.764Z,73.94
2019-06-07T06:54:02.766Z,72.51
2019-06-07T06:55:02.991Z,71.91
2019-06-07T06:56:02.780Z,72.45
2019-06-07T06:57:19.229Z,74.28
2019-06-07T06:58:02.667Z,73.57
2019-06-07T06:59:34.144Z,73.85
2019-06-07T07:00:02.689Z,74.54
2019-06-07T07:01:06.975Z,73.56
2019-06-07T07:02:03.029Z,72.25
2019-06-07T07:03:47.316Z,73.53
2019-06-07T07:04:11.249Z,72.44
2019-06-07T07:05:02.741Z,71.99
2019-06-07T07:06:24.573Z,73.79
2019-06-07T07:07:02.663Z,72.85
2019-06-07T07:08:02.914Z,71.85
2019-06-07T07:09:02.649Z,71.77
2019-06-07T07:10:03.188Z,72.64
2019-06-07T07:11:02.781Z,71.54
2019-06-07T07:13:02.712Z,72.99
2019-06-07T07:14:03.015Z,72.84
2019-06-07T07:15:02.767Z,73.26
2019-06-07T07:16:02.836Z,71.95
2019-06-07T07:17:03.115Z,73.60
2019-06-07T07:18:08.218Z,73.09
2019-06-07T07:19:02.748Z,72.09
2019-06-07T07:20:02.748Z,70.86
2019-06-07T07:21:02.840Z,69.27
2019-06-07T07:22:02.804Z,69.33
2019-06-07T07:23:02.798Z,70.61
2019-06-07T07:24:20.512Z,70.84
2019-06-07T07:25:02.709Z,70.60
2019-06-07T07:26:02.726Z,69.56
2019-06-07T07:27:04.702Z,68.39
2019-06-07T07:28:02.904Z,67.21
2019-06-07T07:29:02.858Z,66.98
2019-06-07T07:30:35.434Z,67.17
2019-06-07T07:31:02.723Z,66.96
2019-06-07T07:32:02.775Z,67.17
2019-06-07T07:33:04.603Z,65.04
2019-06-07T07:34:34.765Z,64.61
2019-06-07T07:35:02.754Z,66.13
2019-06-07T07:36:22.690Z,66.85
2019-06-07T07:37:02.796Z,66.34
2019-06-07T07:38:02.983Z,66.47
2019-06-07T07:39:05.015Z,64.88
2019-06-07T07:40:54.846Z,64.94
2019-06-07T07:41:13.994Z,64.28
2019-06-07T07:43:02.754Z,66.48
2019-06-07T07:44:07.131Z,65.84
2019-06-07T07:45:02.772Z,64.62
2019-06-07T07:46:06.097Z,64.04
2019-06-07T07:47:02.748Z,65.07
2019-06-07T07:49:02.888Z,69.04
2019-06-07T07:50:02.782Z,69.68
2019-06-07T07:51:03.340Z,67.61
2019-06-07T07:52:02.790Z,69.49
2019-06-07T07:53:02.707Z,68.22
2019-06-07T07:54:10.632Z,65.55
2019-06-07T07:55:02.726Z,64.39
2019-06-07T07:56:02.989Z,64.00
2019-06-07T07:57:02.764Z,65.60
2019-06-07T07:58:02.765Z,67.42
2019-06-07T07:59:03.032Z,67.88
2019-06-07T08:00:48.019Z,68.19
2019-06-07T08:01:09.998Z,68.73
2019-06-07T08:02:02.755Z,67.76
2019-06-07T08:03:04.589Z,67.33
2019-06-07T08:04:02.771Z,68.48
2019-06-07T08:05:22.646Z,68.79
2019-06-07T08:06:02.788Z,67.74
2019-06-07T08:07:02.798Z,66.72
2019-06-07T08:08:07.661Z,68.80
2019-06-07T08:09:02.695Z,68.37
2019-06-07T08:10:04.271Z,68.91
2019-06-07T08:11:02.950Z,68.50
2019-06-07T08:12:02.816Z,67.95
2019-06-07T08:13:23.957Z,67.74
2019-06-07T08:14:02.776Z,66.82
2019-06-07T08:15:03.744Z,65.93
2019-06-07T08:16:10.786Z,65.04
2019-06-07T08:17:02.813Z,65.56
2019-06-07T08:18:04.399Z,66.01
2019-06-07T08:19:04.109Z,63.79
2019-06-07T08:20:03.295Z,64.44
2019-06-07T08:21:21.104Z,67.11
2019-06-07T08:22:02.919Z,65.94
2019-06-07T08:23:02.975Z,67.11
2019-06-07T08:24:05.127Z,68.10
2019-06-07T08:25:04.441Z,68.33
2019-06-07T08:26:02.756Z,67.98
2019-06-07T08:27:24.646Z,68.49
2019-06-07T08:28:02.759Z,67.70
2019-06-07T08:29:03.197Z,66.80
2019-06-07T08:30:15.952Z,65.05
2019-06-07T08:31:06.689Z,65.87
2019-06-07T08:32:02.789Z,64.24
2019-06-07T08:33:24.600Z,65.84
2019-06-07T08:34:02.839Z,66.97
2019-06-07T08:35:10.326Z,67.28
2019-06-07T08:36:16.909Z,67.23
2019-06-07T08:37:02.861Z,64.50
2019-06-07T08:38:24.845Z,64.72
2019-06-07T08:39:07.189Z,65.17
2019-06-07T08:40:02.849Z,66.37
2019-06-07T08:41:11.477Z,64.94
2019-06-07T08:42:15.470Z,62.65
2019-06-07T08:44:22.364Z,60.69
2019-06-07T08:45:05.649Z,63.18
2019-06-07T08:46:07.480Z,61.17
2019-06-07T08:47:19.310Z,59.22
2019-06-07T08:48:12.917Z,57.13
2019-06-07T08:49:04.593Z,56.83
2019-06-07T08:50:07.487Z,54.57
2019-06-07T08:51:08.165Z,55.67
2019-06-07T08:52:10.462Z,54.07
2019-06-07T08:53:11.266Z,53.08
2019-06-07T08:55:05.107Z,57.42
2019-06-07T08:56:06.947Z,60.32
2019-06-07T08:57:19.347Z,62.82
2019-06-07T08:58:08.166Z,62.82
2019-06-07T08:59:10.814Z,62.35
2019-06-07T09:00:07.162Z,64.01
2019-06-07T09:01:07.843Z,63.04
2019-06-07T09:02:14.506Z,59.84
2019-06-07T09:03:06.876Z,59.51
2019-06-07T09:04:07.754Z,58.74
2019-06-07T09:05:11.602Z,59.25
2019-06-07T09:06:16.016Z,60.67
2019-06-07T09:07:15.222Z,64.46
2019-06-07T09:08:23.610Z,58.22
2019-06-07T09:09:05.175Z,57.94
2019-06-07T09:10:12.702Z,57.90
2019-06-07T09:11:10.154Z,60.16
2019-06-07T09:12:08.110Z,60.32
2019-06-07T09:13:04.937Z,60.33
2019-06-07T09:14:08.659Z,58.22
2019-06-07T09:15:14.791Z,59.92
2019-06-07T09:16:08.012Z,63.08
2019-06-07T09:17:08.757Z,63.62
2019-06-07T09:18:40.061Z,63.31
2019-06-07T09:19:06.680Z,62.49
2019-06-07T09:20:09.414Z,62.47
2019-06-07T09:21:07.688Z,62.96
2019-06-07T09:22:08.261Z,60.48
2019-06-07T09:23:11.571Z,58.44
2019-06-07T09:24:08.392Z,54.75
2019-06-07T09:25:10.317Z,52.76
2019-06-07T09:26:06.402Z,54.14
2019-06-07T09:27:07.204Z,59.45
2019-06-07T09:28:13.411Z,62.54
2019-06-07T09:29:07.049Z,62.20
2019-06-07T09:30:08.838Z,61.20
2019-06-07T09:31:08.437Z,60.97
2019-06-07T09:32:05.901Z,60.63
2019-06-07T09:33:05.746Z,59.53
2019-06-07T09:34:08.649Z,57.38
2019-06-07T09:35:08.480Z,60.19
2019-06-07T09:36:09.202Z,62.68
2019-06-07T09:37:23.176Z,61.60
2019-06-07T09:38:11.033Z,57.88
2019-06-07T09:39:08.386Z,57.52
2019-06-07T09:40:19.402Z,58.01
2019-06-07T09:41:05.748Z,58.13
2019-06-07T09:42:08.437Z,58.54
2019-06-07T09:43:55.363Z,57.90
2019-06-07T09:44:19.098Z,59.81
2019-06-07T09:45:06.551Z,59.16
2019-06-07T09:46:09.411Z,58.69
2019-06-07T09:47:29.579Z,54.93
2019-06-07T09:48:10.084Z,53.35
2019-06-07T09:49:19.155Z,54.45
2019-06-07T09:50:07.091Z,55.03
2019-06-07T09:51:09.719Z,56.57
2019-06-07T09:52:07.389Z,57.49
2019-06-07T09:53:10.082Z,58.48
2019-06-07T09:54:06.866Z,57.87
2019-06-07T09:55:09.182Z,58.83
2019-06-07T09:56:06.363Z,57.74
2019-06-07T09:57:05.336Z,56.16
2019-06-07T09:58:47.866Z,52.60
2019-06-07T09:59:06.702Z,50.66
2019-06-07T10:00:33.543Z,50.07
2019-06-07T10:01:06.178Z,54.80
2019-06-07T10:02:05.239Z,56.19
2019-06-07T10:03:08.826Z,54.16
2019-06-07T10:04:08.260Z,54.33
2019-06-07T10:05:05.204Z,51.94
2019-06-07T10:06:07.547Z,50.31
2019-06-07T10:07:10.493Z,49.58
2019-06-07T10:08:14.539Z,54.77
2019-06-07T10:10:24.768Z,60.89
2019-06-07T10:11:03.107Z,59.90
2019-06-07T10:12:04.559Z,59.05
2019-06-07T10:13:04.097Z,58.90
2019-06-07T10:14:03.007Z,59.17
2019-06-07T10:15:03.210Z,59.35
2019-06-07T10:16:02.952Z,58.68
2019-06-07T10:17:09.185Z,59.45
2019-06-07T10:18:03.209Z,56.79
2019-06-07T10:19:03.651Z,52.44
2019-06-07T10:20:04.009Z,53.60
2019-06-07T10:21:03.774Z,55.38
2019-06-07T10:22:03.315Z,55.65
2019-06-07T10:23:05.570Z,52.91
2019-06-07T10:24:03.472Z,50.33
2019-06-07T10:25:04.383Z,55.55
2019-06-07T10:26:04.051Z,55.94
2019-06-07T10:27:04.003Z,56.23
2019-06-07T10:28:03.830Z,55.61
2019-06-07T10:29:05.559Z,54.93
2019-06-07T10:30:04.075Z,52.32
2019-06-07T10:31:04.514Z,54.12
2019-06-07T10:32:04.420Z,54.52
2019-06-07T10:33:04.673Z,55.79
2019-06-07T10:34:04.168Z,54.48
2019-06-07T10:35:03.633Z,54.51
2019-06-07T10:36:04.426Z,50.75
2019-06-07T10:37:05.551Z,52.75
2019-06-07T10:38:04.476Z,53.26
2019-06-07T10:39:03.211Z,54.73
2019-06-07T10:40:03.126Z,53.72
2019-06-07T10:41:03.013Z,51.46
2019-06-07T10:42:04.579Z,52.93
2019-06-07T10:43:03.135Z,54.84
2019-06-07T10:44:03.309Z,52.29
2019-06-07T10:45:04.881Z,48.20
2019-06-07T10:46:03.625Z,46.59
2019-06-07T10:47:03.981Z,44.96
2019-06-07T10:48:03.612Z,42.97
2019-06-07T10:49:03.829Z,43.02
2019-06-07T10:50:03.884Z,48.64
2019-06-07T10:51:04.205Z,51.71
2019-06-07T10:52:04.817Z,51.82
2019-06-07T10:53:04.298Z,51.74
2019-06-07T10:54:11.230Z,52.64
2019-06-07T10:55:04.465Z,50.87
2019-06-07T10:56:04.765Z,49.41
2019-06-07T10:57:04.745Z,51.79
2019-06-07T10:58:03.100Z,52.06
2019-06-07T10:59:03.215Z,51.29
2019-06-07T11:00:03.541Z,50.93
2019-06-07T11:01:03.409Z,52.77
2019-06-07T11:02:03.495Z,51.40
2019-06-07T11:03:03.589Z,48.39
2019-06-07T11:04:03.405Z,51.34
2019-06-07T11:05:03.705Z,49.99
2019-06-07T11:06:03.739Z,53.18
2019-06-07T11:07:04.464Z,50.08
2019-06-07T11:08:03.886Z,46.71
2019-06-07T11:09:03.782Z,48.27
2019-06-07T11:10:10.702Z,49.19
2019-06-07T11:11:03.850Z,47.27
2019-06-07T11:12:04.316Z,45.80
2019-06-07T11:13:04.084Z,46.11
2019-06-07T11:14:04.287Z,47.42
2019-06-07T11:15:04.455Z,51.01
2019-06-07T11:16:04.596Z,50.78
2019-06-07T11:17:03.029Z,50.95
2019-06-07T11:18:03.224Z,49.58
2019-06-07T11:19:03.031Z,49.21
2019-06-07T11:20:03.103Z,49.55
2019-06-07T11:21:03.267Z,48.94
2019-06-07T11:22:03.171Z,47.64
2019-06-07T11:23:03.004Z,46.02
2019-06-07T11:24:03.281Z,43.47
2019-06-07T11:25:03.459Z,41.97
2019-06-07T11:26:03.308Z,41.16
2019-06-07T11:27:03.476Z,45.50
2019-06-07T11:28:03.573Z,46.24
2019-06-07T11:29:03.328Z,46.98
2019-06-07T11:30:03.213Z,47.38
2019-06-07T11:31:03.117Z,46.70
2019-06-07T11:32:03.193Z,46.43
2019-06-07T11:33:03.094Z,45.92
2019-06-07T11:34:03.147Z,44.46
2019-06-07T11:35:03.022Z,42.71
2019-06-07T11:36:03.139Z,45.87
2019-06-07T11:37:03.106Z,46.06
2019-06-07T11:38:03.194Z,46.45
2019-06-07T11:39:03.108Z,46.57
2019-06-07T11:40:03.077Z,45.25
2019-06-07T11:41:03.090Z,44.39
2019-06-07T11:42:03.389Z,44.26
2019-06-07T11:43:03.133Z,43.15
2019-06-07T11:44:03.154Z,43.57
2019-06-07T11:45:03.092Z,40.77
2019-06-07T11:46:03.176Z,40.10
2019-06-07T11:47:03.023Z,37.62
2019-06-07T11:48:03.023Z,36.59
2019-06-07T11:49:03.266Z,36.71
2019-06-07T11:50:03.053Z,35.61
2019-06-07T11:51:03.179Z,37.10
2019-06-07T11:52:03.056Z,38.33
2019-06-07T11:53:06.484Z,39.81
2019-06-07T11:54:03.152Z,37.21
2019-06-07T12:11:14.378Z,42.03
2019-06-07T12:12:10.406Z,39.36
2019-06-07T12:13:10.461Z,36.77
2019-06-07T12:14:11.017Z,35.61
2019-06-07T12:15:10.991Z,34.20
2019-06-07T12:16:11.251Z,34.02
2019-06-07T12:17:11.252Z,33.93
2019-06-07T12:18:11.240Z,36.46
2019-06-07T12:19:11.857Z,36.67
2019-06-07T12:20:11.367Z,36.65
2019-06-07T12:21:11.522Z,36.41
2019-06-07T12:22:11.645Z,40.02
2019-06-07T12:23:11.934Z,41.66
2019-06-07T12:24:10.512Z,40.52
2019-06-07T12:25:10.625Z,41.40
2019-06-07T12:26:10.355Z,40.04
2019-06-07T12:27:10.365Z,38.96
2019-06-07T12:28:10.718Z,38.42
2019-06-07T12:29:10.727Z,36.58
2019-06-07T12:30:18.125Z,36.76
2019-06-07T12:31:10.884Z,35.69
2019-06-07T12:32:11.454Z,34.64
2019-06-07T12:33:11.270Z,33.74
2019-06-07T12:34:11.253Z,32.39
2019-06-07T12:35:11.458Z,35.36
2019-06-07T13:28:44.953Z,19.44
2019-06-07T13:29:44.840Z,23.33
2019-06-07T13:30:44.918Z,24.91
2019-06-07T13:31:44.877Z,24.13
2019-06-07T13:32:45.033Z,22.12
2019-06-07T13:33:44.969Z,21.54
2019-06-07T13:34:44.994Z,24.24
2019-06-07T13:35:44.883Z,21.44
2019-06-07T13:36:44.936Z,20.94
2019-06-07T13:37:45.728Z,21.19
2019-06-07T13:38:44.953Z,21.73
2019-06-07T13:39:45.009Z,21.78
2019-06-07T13:40:44.913Z,20.11
2019-06-07T13:41:44.974Z,19.14
2019-06-07T13:42:44.779Z,18.57
2019-06-07T13:43:44.875Z,17.99
2019-06-07T13:44:45.107Z,18.46
2019-06-07T13:45:44.725Z,17.56
2019-06-07T13:46:44.856Z,17.92
2019-06-07T13:47:44.899Z,18.99
2019-06-07T13:48:44.949Z,19.86
2019-06-07T13:49:45.021Z,32.89
2019-06-07T13:50:44.855Z,38.09
2019-06-07T13:51:44.942Z,40.66
2019-06-07T13:52:46.706Z,38.18
2019-06-07T13:53:44.985Z,38.48
2019-06-07T13:54:44.952Z,36.96
2019-06-07T13:55:44.944Z,39.09
2019-06-07T13:57:01.289Z,36.63
2019-06-07T13:57:44.957Z,37.81
2019-06-07T13:58:44.940Z,39.87
2019-06-07T13:59:45.052Z,39.12
2019-06-07T14:00:44.855Z,39.26
2019-06-07T14:01:44.907Z,38.64
2019-06-07T14:02:44.949Z,39.87
2019-06-07T14:03:44.907Z,39.97
2019-06-07T14:04:44.938Z,38.39
2019-06-07T14:05:44.834Z,37.88
2019-06-07T14:06:45.074Z,37.53
2019-06-07T14:07:44.818Z,38.37
2019-06-07T14:08:45.066Z,39.54